sensor_id;sensor_type;location;lat;lon;timestamp;pressure;altitude;pressure_sealevel;temperature;humidity
30554;BME280;17335;50.720;7.452;2023-04-07T00:01:59;99140.53;;;6.68;100.00
30554;BME280;17335;50.720;7.452;2023-04-07T00:04:25;99142.09;;;6.70;100.00
30554;BME280;17335;50.720;7.452;2023-04-07T00:06:52;99148.19;;;6.72;100.00
30554;BME280;17335;50.720;7.452;2023-04-07T00:09:19;99141.84;;;6.73;100.00
30554;BME280;17335;50.720;7.452;2023-04-07T00:11:45;99147.31;;;6.72;100.00
30554;BME280;17335;50.720;7.452;2023-04-07T00:14:13;99145.63;;;6.71;100.00
30554;BME280;17335;50.720;7.452;2023-04-07T00:16:40;99140.06;;;6.74;100.00
30554;BME280;17335;50.720;7.452;2023-04-07T00:19:07;99133.59;;;6.76;100.00
30554;BME280;17335;50.720;7.452;2023-04-07T00:21:33;99126.78;;;6.84;100.00
30554;BME280;17335;50.720;7.452;2023-04-07T00:24:00;99128.41;;;6.75;100.00
30554;BME280;17335;50.720;7.452;2023-04-07T00:26:27;99123.69;;;6.67;100.00
30554;BME280;17335;50.720;7.452;2023-04-07T00:28:57;99126.75;;;6.63;100.00
30554;BME280;17335;50.720;7.452;2023-04-07T00:31:24;99128.63;;;6.72;100.00
30554;BME280;17335;50.720;7.452;2023-04-07T00:33:51;99123.69;;;6.67;100.00
30554;BME280;17335;50.720;7.452;2023-04-07T00:36:18;99114.72;;;6.68;100.00
30554;BME280;17335;50.720;7.452;2023-04-07T00:38:45;99108.13;;;6.84;100.00
30554;BME280;17335;50.720;7.452;2023-04-07T00:41:11;99112.25;;;6.76;100.00
30554;BME280;17335;50.720;7.452;2023-04-07T00:43:38;99106.22;;;6.74;100.00
30554;BME280;17335;50.720;7.452;2023-04-07T00:46:05;99104.25;;;6.76;100.00
30554;BME280;17335;50.720;7.452;2023-04-07T00:48:31;99107.69;;;6.67;100.00
30554;BME280;17335;50.720;7.452;2023-04-07T00:50:58;99103.53;;;6.74;100.00
30554;BME280;17335;50.720;7.452;2023-04-07T00:53:25;99100.16;;;6.72;100.00
30554;BME280;17335;50.720;7.452;2023-04-07T00:55:52;99102.72;;;6.74;100.00
30554;BME280;17335;50.720;7.452;2023-04-07T00:58:18;99102.09;;;6.70;100.00
30554;BME280;17335;50.720;7.452;2023-04-07T01:00:48;99100.16;;;6.72;100.00
30554;BME280;17335;50.720;7.452;2023-04-07T01:13:51;99083.88;;;6.75;100.00
30554;BME280;17335;50.720;7.452;2023-04-07T01:16:30;99083.63;;;6.79;100.00
30554;BME280;17335;50.720;7.452;2023-04-07T01:19:07;99090.22;;;6.74;100.00
30554;BME280;17335;50.720;7.452;2023-04-07T01:21:35;99078.31;;;6.79;100.00
30554;BME280;17335;50.720;7.452;2023-04-07T01:26:36;99077.81;;;6.85;100.00
30554;BME280;17335;50.720;7.452;2023-04-07T01:29:30;99078.41;;;6.77;100.00
30554;BME280;17335;50.720;7.452;2023-04-07T01:32:01;99075.88;;;6.75;100.00
30554;BME280;17335;50.720;7.452;2023-04-07T01:34:30;99071.63;;;6.84;100.00
30554;BME280;17335;50.720;7.452;2023-04-07T01:37:00;99064.97;;;6.79;100.00
30554;BME280;17335;50.720;7.452;2023-04-07T01:39:27;99068.22;;;6.82;100.00
30554;BME280;17335;50.720;7.452;2023-04-07T01:41:54;99071.63;;;6.84;100.00
30554;BME280;17335;50.720;7.452;2023-04-07T01:44:23;99063.47;;;6.86;100.00
30554;BME280;17335;50.720;7.452;2023-04-07T01:46:51;99068.22;;;6.82;100.00
30554;BME280;17335;50.720;7.452;2023-04-07T01:49:18;99073.88;;;6.89;100.00
30554;BME280;17335;50.720;7.452;2023-04-07T01:51:45;99064.72;;;6.82;100.00
30554;BME280;17335;50.720;7.452;2023-04-07T01:54:16;99067.59;;;6.90;100.00
30554;BME280;17335;50.720;7.452;2023-04-07T01:56:44;99059.25;;;6.83;100.00
30554;BME280;17335;50.720;7.452;2023-04-07T01:59:10;99060.09;;;6.84;100.00
30554;BME280;17335;50.720;7.452;2023-04-07T02:10:02;99061.47;;;6.78;100.00
30554;BME280;17335;50.720;7.452;2023-04-07T02:12:31;99059.03;;;6.75;100.00
30554;BME280;17335;50.720;7.452;2023-04-07T02:14:59;99069.22;;;6.81;100.00
30554;BME280;17335;50.720;7.452;2023-04-07T02:17:27;99060.34;;;6.81;100.00
30554;BME280;17335;50.720;7.452;2023-04-07T02:19:55;99060.22;;;6.82;100.00
30554;BME280;17335;50.720;7.452;2023-04-07T02:22:23;99058.28;;;6.84;100.00
30554;BME280;17335;50.720;7.452;2023-04-07T02:24:50;99063.28;;;6.78;100.00
30554;BME280;17335;50.720;7.452;2023-04-07T02:27:17;99065.66;;;6.81;100.00
30554;BME280;17335;50.720;7.452;2023-04-07T02:29:44;99066.41;;;6.83;100.00
30554;BME280;17335;50.720;7.452;2023-04-07T02:32:10;99065.41;;;6.84;100.00
30554;BME280;17335;50.720;7.452;2023-04-07T02:34:37;99057.66;;;6.81;100.00
30554;BME280;17335;50.720;7.452;2023-04-07T02:37:03;99062.03;;;6.82;100.00
30554;BME280;17335;50.720;7.452;2023-04-07T02:39:30;99062.63;;;6.85;100.00
30554;BME280;17335;50.720;7.452;2023-04-07T02:41:57;99062.88;;;6.82;100.00
30554;BME280;17335;50.720;7.452;2023-04-07T02:44:23;99068.22;;;6.82;100.00
30554;BME280;17335;50.720;7.452;2023-04-07T02:46:50;99062.28;;;6.79;100.00
30554;BME280;17335;50.720;7.452;2023-04-07T02:49:16;99062.03;;;6.82;100.00
30554;BME280;17335;50.720;7.452;2023-04-07T02:51:42;99060.22;;;6.82;100.00
30554;BME280;17335;50.720;7.452;2023-04-07T02:54:09;99060.88;;;6.74;100.00
30554;BME280;17335;50.720;7.452;2023-04-07T02:56:35;99068.03;;;6.74;100.00
30554;BME280;17335;50.720;7.452;2023-04-07T02:59:02;99067.75;;;6.77;100.00
30554;BME280;17335;50.720;7.452;2023-04-07T03:01:28;99063.28;;;6.78;100.00
30554;BME280;17335;50.720;7.452;2023-04-07T03:03:55;99070.75;;;6.84;100.00
30554;BME280;17335;50.720;7.452;2023-04-07T03:06:22;99062.38;;;6.88;100.00
30554;BME280;17335;50.720;7.452;2023-04-07T03:08:48;99067.63;;;6.79;100.00
30554;BME280;17335;50.720;7.452;2023-04-07T03:11:15;99064.84;;;6.80;100.00
30554;BME280;17335;50.720;7.452;2023-04-07T03:13:41;99073.09;;;6.77;100.00
30554;BME280;17335;50.720;7.452;2023-04-07T03:16:08;99071.00;;;6.81;100.00
30554;BME280;17335;50.720;7.452;2023-04-07T03:18:34;99071.41;;;6.76;100.00
30554;BME280;17335;50.720;7.452;2023-04-07T03:21:00;99075.59;;;6.90;100.00
30554;BME280;17335;50.720;7.452;2023-04-07T03:23:27;99074.66;;;6.80;100.00
30554;BME280;17335;50.720;7.452;2023-04-07T03:25:54;99068.50;;;6.79;100.00
30554;BME280;17335;50.720;7.452;2023-04-07T03:28:21;99070.28;;;6.79;100.00
30554;BME280;17335;50.720;7.452;2023-04-07T03:30:47;99076.09;;;6.84;100.00
30554;BME280;17335;50.720;7.452;2023-04-07T03:33:14;99073.44;;;6.84;100.00
30554;BME280;17335;50.720;7.452;2023-04-07T03:35:41;99056.78;;;6.91;100.00
30554;BME280;17335;50.720;7.452;2023-04-07T03:38:08;99071.63;;;6.84;100.00
30554;BME280;17335;50.720;7.452;2023-04-07T03:40:34;99068.56;;;6.89;100.00
30554;BME280;17335;50.720;7.452;2023-04-07T03:43:01;99071.56;;;6.95;100.00
30554;BME280;17335;50.720;7.452;2023-04-07T03:45:27;99066.88;;;6.88;100.00
30554;BME280;17335;50.720;7.452;2023-04-07T03:47:53;99074.41;;;6.83;100.00
30554;BME280;17335;50.720;7.452;2023-04-07T03:50:20;99070.00;;;6.93;100.00
30554;BME280;17335;50.720;7.452;2023-04-07T03:52:46;99071.69;;;6.94;100.00
30554;BME280;17335;50.720;7.452;2023-04-07T03:55:13;99078.00;;;6.93;100.00
30554;BME280;17335;50.720;7.452;2023-04-07T03:57:39;99082.59;;;6.91;100.00
30554;BME280;17335;50.720;7.452;2023-04-07T04:00:07;99081.06;;;6.88;100.00
30554;BME280;17335;50.720;7.452;2023-04-07T04:02:34;99078.97;;;6.92;100.00
30554;BME280;17335;50.720;7.452;2023-04-07T04:05:00;99082.34;;;6.94;100.00
30554;BME280;17335;50.720;7.452;2023-04-07T04:07:27;99091.06;;;6.96;100.00
30554;BME280;17335;50.720;7.452;2023-04-07T04:09:53;99086.63;;;6.97;100.00
30554;BME280;17335;50.720;7.452;2023-04-07T04:12:20;99091.69;;;7.00;100.00
30554;BME280;17335;50.720;7.452;2023-04-07T04:14:46;99096.41;;;6.96;100.00
30554;BME280;17335;50.720;7.452;2023-04-07T04:17:13;99090.38;;;6.94;100.00
30554;BME280;17335;50.720;7.452;2023-04-07T04:19:39;99090.50;;;6.92;100.00
30554;BME280;17335;50.720;7.452;2023-04-07T04:22:06;99084.66;;;7.20;100.00
30554;BME280;17335;50.720;7.452;2023-04-07T04:24:33;99095.41;;;7.08;100.00
30554;BME280;17335;50.720;7.452;2023-04-07T04:26:59;99095.66;;;7.05;100.00
30554;BME280;17335;50.720;7.452;2023-04-07T04:29:27;99099.75;;;7.09;100.00
30554;BME280;17335;50.720;7.452;2023-04-07T04:31:53;99098.66;;;7.12;100.00
30554;BME280;17335;50.720;7.452;2023-04-07T04:34:19;99097.44;;;7.16;100.00
30554;BME280;17335;50.720;7.452;2023-04-07T04:36:47;99100.94;;;7.17;100.00
30554;BME280;17335;50.720;7.452;2023-04-07T04:39:14;99112.59;;;7.16;100.00
30554;BME280;17335;50.720;7.452;2023-04-07T04:41:40;99108.69;;;7.20;100.00
30554;BME280;17335;50.720;7.452;2023-04-07T04:44:07;99109.41;;;7.22;100.00
30554;BME280;17335;50.720;7.452;2023-04-07T04:46:34;99108.31;;;7.24;100.00
30554;BME280;17335;50.720;7.452;2023-04-07T04:49:01;99114.03;;;7.20;100.00
30554;BME280;17335;50.720;7.452;2023-04-07T04:51:27;99111.19;;;7.32;100.00
30554;BME280;17335;50.720;7.452;2023-04-07T04:53:54;99119.56;;;7.28;100.00
30554;BME280;17335;50.720;7.452;2023-04-07T04:56:21;99120.81;;;7.24;100.00
30554;BME280;17335;50.720;7.452;2023-04-07T04:58:47;99115.72;;;7.21;100.00
30554;BME280;17335;50.720;7.452;2023-04-07T05:01:14;99114.34;;;7.05;100.00
30554;BME280;17335;50.720;7.452;2023-04-07T05:03:41;99118.09;;;7.03;100.00
30554;BME280;17335;50.720;7.452;2023-04-07T05:06:08;99122.59;;;7.02;100.00
30554;BME280;17335;50.720;7.452;2023-04-07T05:08:34;99127.94;;;7.02;100.00
30554;BME280;17335;50.720;7.452;2023-04-07T05:11:01;99126.50;;;6.98;100.00
30554;BME280;17335;50.720;7.452;2023-04-07T05:13:27;99123.84;;;6.98;100.00
30554;BME280;17335;50.720;7.452;2023-04-07T05:15:56;99129.66;;;7.03;100.00
30554;BME280;17335;50.720;7.452;2023-04-07T05:18:23;99131.28;;;7.16;100.00
30554;BME280;17335;50.720;7.452;2023-04-07T05:20:49;99139.56;;;7.12;100.00
30554;BME280;17335;50.720;7.452;2023-04-07T05:23:16;99139.63;;;7.22;100.00
30554;BME280;17335;50.720;7.452;2023-04-07T05:25:42;99138.19;;;7.18;100.00
30554;BME280;17335;50.720;7.452;2023-04-07T05:28:09;99145.09;;;7.21;100.00
30554;BME280;17335;50.720;7.452;2023-04-07T05:30:36;99141.19;;;7.25;100.00
30554;BME280;17335;50.720;7.452;2023-04-07T05:33:02;99146.91;;;7.20;100.00
30554;BME280;17335;50.720;7.452;2023-04-07T05:35:29;99146.06;;;7.20;100.00
30554;BME280;17335;50.720;7.452;2023-04-07T05:37:56;99146.06;;;7.20;100.00
30554;BME280;17335;50.720;7.452;2023-04-07T05:40:22;99148.38;;;7.24;100.00
30554;BME280;17335;50.720;7.452;2023-04-07T05:42:49;99153.94;;;7.21;100.00
30554;BME280;17335;50.720;7.452;2023-04-07T05:45:16;99152.56;;;7.27;100.00
30554;BME280;17335;50.720;7.452;2023-04-07T05:47:42;99150.91;;;7.26;100.00
30554;BME280;17335;50.720;7.452;2023-04-07T05:50:09;99156.84;;;7.29;100.00
30554;BME280;17335;50.720;7.452;2023-04-07T05:52:37;99158.19;;;7.24;100.00
30554;BME280;17335;50.720;7.452;2023-04-07T05:55:04;99157.91;;;7.27;100.00
30554;BME280;17335;50.720;7.452;2023-04-07T05:57:31;99163.78;;;7.21;100.00
30554;BME280;17335;50.720;7.452;2023-04-07T05:59:59;99165.34;;;7.23;100.00
30554;BME280;17335;50.720;7.452;2023-04-07T06:02:25;99167.75;;;7.26;100.00
30554;BME280;17335;50.720;7.452;2023-04-07T06:04:52;99168.88;;;7.24;100.00
30554;BME280;17335;50.720;7.452;2023-04-07T06:07:18;99169.13;;;7.21;100.00
30554;BME280;17335;50.720;7.452;2023-04-07T06:09:44;99173.81;;;7.28;100.00
30554;BME280;17335;50.720;7.452;2023-04-07T06:12:11;99170.19;;;7.29;100.00
30554;BME280;17335;50.720;7.452;2023-04-07T06:14:38;99177.59;;;7.26;100.00
30554;BME280;17335;50.720;7.452;2023-04-07T06:17:04;99174.06;;;7.25;100.00
30554;BME280;17335;50.720;7.452;2023-04-07T06:19:31;99185.53;;;7.37;100.00
30554;BME280;17335;50.720;7.452;2023-04-07T06:21:58;99185.53;;;7.37;100.00
30554;BME280;17335;50.720;7.452;2023-04-07T06:24:24;99182.50;;;7.42;100.00
30554;BME280;17335;50.720;7.452;2023-04-07T06:26:51;99180.94;;;7.39;100.00
30554;BME280;17335;50.720;7.452;2023-04-07T06:29:17;99182.63;;;7.40;100.00
30554;BME280;17335;50.720;7.452;2023-04-07T06:31:44;99174.88;;;7.37;100.00
30554;BME280;17335;50.720;7.452;2023-04-07T06:34:10;99181.41;;;7.44;100.00
30554;BME280;17335;50.720;7.452;2023-04-07T06:36:37;99191.75;;;7.38;100.00
30554;BME280;17335;50.720;7.452;2023-04-07T06:39:04;99191.75;;;7.38;100.00
30554;BME280;17335;50.720;7.452;2023-04-07T06:41:30;99185.53;;;7.37;100.00
30554;BME280;17335;50.720;7.452;2023-04-07T06:43:57;99187.72;;;7.43;100.00
30554;BME280;17335;50.720;7.452;2023-04-07T06:46:24;99187.50;;;7.35;100.00
30554;BME280;17335;50.720;7.452;2023-04-07T06:48:51;99192.00;;;7.35;100.00
30554;BME280;17335;50.720;7.452;2023-04-07T06:51:18;99194.81;;;7.33;100.00
30554;BME280;17335;50.720;7.452;2023-04-07T06:53:45;99198.53;;;7.42;100.00
30554;BME280;17335;50.720;7.452;2023-04-07T06:56:14;99192.59;;;7.38;100.00
30554;BME280;17335;50.720;7.452;2023-04-07T06:58:40;99199.44;;;7.31;100.00
30554;BME280;17335;50.720;7.452;2023-04-07T07:01:07;99206.91;;;7.37;100.00
30554;BME280;17335;50.720;7.452;2023-04-07T07:03:33;99205.97;;;7.27;100.00
30554;BME280;17335;50.720;7.452;2023-04-07T07:06:01;99202.59;;;7.25;100.00
30554;BME280;17335;50.720;7.452;2023-04-07T07:08:28;99214.41;;;7.22;100.00
30554;BME280;17335;50.720;7.452;2023-04-07T07:10:54;99214.50;;;7.21;100.00
30554;BME280;17335;50.720;7.452;2023-04-07T07:13:23;99207.09;;;7.24;100.00
30554;BME280;17335;50.720;7.452;2023-04-07T07:15:50;99215.69;;;7.28;100.00
30554;BME280;17335;50.720;7.452;2023-04-07T07:18:17;99213.38;;;7.35;100.00
30554;BME280;17335;50.720;7.452;2023-04-07T07:20:44;99215.69;;;7.28;100.00
30554;BME280;17335;50.720;7.452;2023-04-07T07:23:11;99221.50;;;7.33;100.00
30554;BME280;17335;50.720;7.452;2023-04-07T07:25:38;99218.84;;;7.33;100.00
30554;BME280;17335;50.720;7.452;2023-04-07T07:28:04;99218.19;;;7.41;100.00
30554;BME280;17335;50.720;7.452;2023-04-07T07:30:31;99223.94;;;7.36;100.00
30554;BME280;17335;50.720;7.452;2023-04-07T07:32:57;99225.59;;;7.37;100.00
30554;BME280;17335;50.720;7.452;2023-04-07T07:35:24;99223.84;;;7.26;100.00
30554;BME280;17335;50.720;7.452;2023-04-07T07:37:51;99232.06;;;7.35;100.00
30554;BME280;17335;50.720;7.452;2023-04-07T07:40:17;99222.09;;;7.37;100.00
30554;BME280;17335;50.720;7.452;2023-04-07T07:42:45;99226.19;;;7.41;100.00
30554;BME280;17335;50.720;7.452;2023-04-07T07:45:12;99229.75;;;7.41;100.00
30554;BME280;17335;50.720;7.452;2023-04-07T07:47:39;99236.00;;;7.51;100.00
30554;BME280;17335;50.720;7.452;2023-04-07T07:50:07;99243.28;;;7.49;100.00
30554;BME280;17335;50.720;7.452;2023-04-07T07:52:33;99238.94;;;7.48;100.00
30554;BME280;17335;50.720;7.452;2023-04-07T07:55:01;99239.41;;;7.54;100.00
30554;BME280;17335;50.720;7.452;2023-04-07T07:57:28;99246.16;;;7.58;100.00
30554;BME280;17335;50.720;7.452;2023-04-07T07:59:56;99243.38;;;7.59;100.00
30554;BME280;17335;50.720;7.452;2023-04-07T08:02:22;99246.69;;;7.51;100.00
30554;BME280;17335;50.720;7.452;2023-04-07T08:04:56;99244.97;;;7.50;100.00
30554;BME280;17335;50.720;7.452;2023-04-07T08:07:22;99253.69;;;7.64;100.00
30554;BME280;17335;50.720;7.452;2023-04-07T08:09:49;99251.16;;;7.51;100.00
30554;BME280;17335;50.720;7.452;2023-04-07T08:12:15;99256.00;;;7.57;100.00
30554;BME280;17335;50.720;7.452;2023-04-07T08:14:42;99255.63;;;7.62;100.00
30554;BME280;17335;50.720;7.452;2023-04-07T08:17:09;99259.03;;;7.64;100.00
30554;BME280;17335;50.720;7.452;2023-04-07T08:19:35;99264.63;;;7.61;100.00
30554;BME280;17335;50.720;7.452;2023-04-07T08:22:02;99263.44;;;7.54;100.00
30554;BME280;17335;50.720;7.452;2023-04-07T08:24:28;99259.28;;;7.61;100.00
30554;BME280;17335;50.720;7.452;2023-04-07T08:26:55;99270.16;;;7.69;100.00
30554;BME280;17335;50.720;7.452;2023-04-07T08:29:21;99273.09;;;7.66;100.00
30554;BME280;17335;50.720;7.452;2023-04-07T08:31:48;99267.97;;;7.74;100.00
30554;BME280;17335;50.720;7.452;2023-04-07T08:34:14;99270.16;;;7.69;100.00
30554;BME280;17335;50.720;7.452;2023-04-07T08:36:41;99272.78;;;7.80;100.00
30554;BME280;17335;50.720;7.452;2023-04-07T08:39:09;99270.84;;;7.82;100.00
30554;BME280;17335;50.720;7.452;2023-04-07T08:41:39;99271.09;;;7.79;100.00
30554;BME280;17335;50.720;7.452;2023-04-07T08:44:06;99276.19;;;7.82;100.00
30554;BME280;17335;50.720;7.452;2023-04-07T08:46:37;99277.28;;;7.80;100.00
30554;BME280;17335;50.720;7.452;2023-04-07T08:49:07;99274.97;;;7.75;100.00
30554;BME280;17335;50.720;7.452;2023-04-07T08:51:37;99273.97;;;7.87;100.00
30554;BME280;17335;50.720;7.452;2023-04-07T08:54:08;99283.94;;;7.85;100.00
30554;BME280;17335;50.720;7.452;2023-04-07T08:56:39;99274.22;;;7.84;100.00
30554;BME280;17335;50.720;7.452;2023-04-07T08:59:09;99275.63;;;8.00;100.00
30554;BME280;17335;50.720;7.452;2023-04-07T09:01:36;99275.41;;;7.92;100.00
30554;BME280;17335;50.720;7.452;2023-04-07T09:04:03;99281.66;;;8.02;100.00
30554;BME280;17335;50.720;7.452;2023-04-07T09:06:30;99283.88;;;7.97;100.00
30554;BME280;17335;50.720;7.452;2023-04-07T09:08:58;99282.38;;;7.83;100.00
30554;BME280;17335;50.720;7.452;2023-04-07T09:11:25;99279.97;;;8.01;100.00
30554;BME280;17335;50.720;7.452;2023-04-07T09:13:53;99287.81;;;7.93;100.00
30554;BME280;17335;50.720;7.452;2023-04-07T09:16:20;99290.41;;;8.04;100.00
30554;BME280;17335;50.720;7.452;2023-04-07T09:18:47;99296.06;;;8.11;100.00
30554;BME280;17335;50.720;7.452;2023-04-07T09:21:14;99295.25;;;8.10;100.00
30554;BME280;17335;50.720;7.452;2023-04-07T09:23:41;99291.41;;;8.03;100.00
30554;BME280;17335;50.720;7.452;2023-04-07T09:31:18;99296.59;;;8.04;100.00
30554;BME280;17335;50.720;7.452;2023-04-07T09:33:48;99300.06;;;8.16;100.00
30554;BME280;17335;50.720;7.452;2023-04-07T09:36:15;99294.53;;;8.08;100.00
30554;BME280;17335;50.720;7.452;2023-04-07T09:38:43;99300.34;;;8.13;100.00
30554;BME280;17335;50.720;7.452;2023-04-07T09:41:12;99294.00;;;8.14;100.00
30554;BME280;17335;50.720;7.452;2023-04-07T09:43:43;99300.38;;;8.23;100.00
30554;BME280;17335;50.720;7.452;2023-04-07T09:46:16;99299.03;;;8.29;100.00
30554;BME280;17335;50.720;7.452;2023-04-07T09:48:44;99301.16;;;8.35;100.00
30554;BME280;17335;50.720;7.452;2023-04-07T09:51:15;99286.41;;;8.40;100.00
30554;BME280;17335;50.720;7.452;2023-04-07T09:53:49;99295.09;;;8.33;100.00
30554;BME280;17335;50.720;7.452;2023-04-07T09:56:19;99300.50;;;8.21;100.00
30554;BME280;17335;50.720;7.452;2023-04-07T09:58:48;99297.78;;;8.12;100.00
30554;BME280;17335;50.720;7.452;2023-04-07T10:01:17;99298.25;;;8.17;100.00
30554;BME280;17335;50.720;7.452;2023-04-07T10:03:44;99305.00;;;8.21;100.00
30554;BME280;17335;50.720;7.452;2023-04-07T10:06:12;99300.97;;;8.26;100.00
30554;BME280;17335;50.720;7.452;2023-04-07T10:08:40;99310.97;;;8.45;100.00
30554;BME280;17335;50.720;7.452;2023-04-07T10:11:09;99303.44;;;8.39;100.00
30554;BME280;17335;50.720;7.452;2023-04-07T10:13:36;99307.91;;;8.50;100.00
30554;BME280;17335;50.720;7.452;2023-04-07T10:16:06;99313.16;;;8.40;100.00
30554;BME280;17335;50.720;7.452;2023-04-07T10:18:35;99307.19;;;8.27;100.00
30554;BME280;17335;50.720;7.452;2023-04-07T10:21:03;99318.63;;;8.39;100.00
30554;BME280;17335;50.720;7.452;2023-04-07T10:23:48;99310.91;;;8.57;100.00
30554;BME280;17335;50.720;7.452;2023-04-07T10:26:22;99313.63;;;8.45;100.00
30554;BME280;17335;50.720;7.452;2023-04-07T10:28:54;99314.94;;;8.51;100.00
30554;BME280;17335;50.720;7.452;2023-04-07T10:31:23;99316.75;;;8.51;100.00
30554;BME280;17335;50.720;7.452;2023-04-07T10:33:51;99318.63;;;8.39;100.00
30554;BME280;17335;50.720;7.452;2023-04-07T10:36:20;99315.22;;;8.48;100.00
30554;BME280;17335;50.720;7.452;2023-04-07T10:41:40;99319.31;;;8.73;100.00
30554;BME280;17335;50.720;7.452;2023-04-07T10:44:09;99323.78;;;8.73;100.00
30554;BME280;17335;50.720;7.452;2023-04-07T10:49:21;99324.03;;;8.70;100.00
30554;BME280;17335;50.720;7.452;2023-04-07T10:52:22;99325.75;;;8.71;100.00
30554;BME280;17335;50.720;7.452;2023-04-07T10:58:14;99328.75;;;8.77;100.00
30554;BME280;17335;50.720;7.452;2023-04-07T11:00:42;99324.94;;;8.80;100.00
30554;BME280;17335;50.720;7.452;2023-04-07T11:03:30;99331.69;;;8.74;100.00
30554;BME280;17335;50.720;7.452;2023-04-07T11:06:08;99339.63;;;8.86;100.00
30554;BME280;17335;50.720;7.452;2023-04-07T11:08:39;99332.44;;;8.86;100.00
30554;BME280;17335;50.720;7.452;2023-04-07T11:11:08;99338.00;;;9.04;100.00
30554;BME280;17335;50.720;7.452;2023-04-07T11:13:40;99339.88;;;9.13;100.00
30554;BME280;17335;50.720;7.452;2023-04-07T11:16:07;99329.88;;;9.15;100.00
30554;BME280;17335;50.720;7.452;2023-04-07T11:18:35;99331.31;;;9.29;100.00
30554;BME280;17335;50.720;7.452;2023-04-07T11:21:03;99334.72;;;9.31;100.00
30554;BME280;17335;50.720;7.452;2023-04-07T11:23:39;99344.66;;;9.60;100.00
30554;BME280;17335;50.720;7.452;2023-04-07T11:26:07;99343.53;;;9.72;100.00
30554;BME280;17335;50.720;7.452;2023-04-07T11:28:47;99346.72;;;9.47;100.00
30554;BME280;17335;50.720;7.452;2023-04-07T11:31:23;99342.50;;;9.44;100.00
30554;BME280;17335;50.720;7.452;2023-04-07T11:33:53;99340.63;;;9.25;100.00
30554;BME280;17335;50.720;7.452;2023-04-07T11:36:27;99343.63;;;9.32;100.00
30554;BME280;17335;50.720;7.452;2023-04-07T11:38:54;99344.50;;;9.42;100.00
30554;BME280;17335;50.720;7.452;2023-04-07T11:41:24;99352.97;;;9.57;100.00
30554;BME280;17335;50.720;7.452;2023-04-07T11:44:09;99352.72;;;9.80;100.00
30554;BME280;17335;50.720;7.452;2023-04-07T11:46:50;99349.75;;;9.63;100.00
30554;BME280;17335;50.720;7.452;2023-04-07T11:49:18;99347.16;;;9.52;100.00
30554;BME280;17335;50.720;7.452;2023-04-07T11:51:44;99349.41;;;9.47;100.00
30554;BME280;17335;50.720;7.452;2023-04-07T11:54:12;99355.06;;;9.53;100.00
30554;BME280;17335;50.720;7.452;2023-04-07T11:56:44;99362.81;;;9.47;100.00
30554;BME280;17335;50.720;7.452;2023-04-07T11:59:38;99356.22;;;9.61;100.00
30554;BME280;17335;50.720;7.452;2023-04-07T12:02:04;99361.69;;;9.49;100.00
30554;BME280;17335;50.720;7.452;2023-04-07T12:04:32;99364.13;;;9.62;100.00
30554;BME280;17335;50.720;7.452;2023-04-07T12:07:09;99361.91;;;9.87;100.00
30554;BME280;17335;50.720;7.452;2023-04-07T12:09:36;99360.19;;;9.76;100.00
30554;BME280;17335;50.720;7.452;2023-04-07T12:12:04;99365.56;;;9.66;100.00
30554;BME280;17335;50.720;7.452;2023-04-07T12:14:33;99362.09;;;9.45;100.00
30554;BME280;17335;50.720;7.452;2023-04-07T12:17:00;99371.13;;;9.44;100.00
30554;BME280;17335;50.720;7.452;2023-04-07T12:19:29;99370.25;;;9.33;100.00
30554;BME280;17335;50.720;7.452;2023-04-07T12:21:57;99371.41;;;9.41;100.00
30554;BME280;17335;50.720;7.452;2023-04-07T12:24:25;99382.88;;;9.52;100.00
30554;BME280;17335;50.720;7.452;2023-04-07T12:26:52;99382.13;;;9.41;100.00
30554;BME280;17335;50.720;7.452;2023-04-07T12:29:18;99388.91;;;9.45;100.00
30554;BME280;17335;50.720;7.452;2023-04-07T12:31:45;99383.69;;;9.43;100.00
30554;BME280;17335;50.720;7.452;2023-04-07T12:34:16;99379.59;;;9.39;100.00
30554;BME280;17335;50.720;7.452;2023-04-07T12:36:42;99392.97;;;9.39;100.00
30554;BME280;17335;50.720;7.452;2023-04-07T12:39:09;99385.06;;;9.37;100.00
30554;BME280;17335;50.720;7.452;2023-04-07T12:41:36;99387.41;;;9.21;100.00
30554;BME280;17335;50.720;7.452;2023-04-07T12:44:04;99395.44;;;9.21;100.00
30554;BME280;17335;50.720;7.452;2023-04-07T12:46:31;99406.59;;;9.26;100.00
30554;BME280;17335;50.720;7.452;2023-04-07T12:48:58;99393.88;;;9.18;100.00
30554;BME280;17335;50.720;7.452;2023-04-07T12:51:25;99392.75;;;9.21;100.00
30554;BME280;17335;50.720;7.452;2023-04-07T12:53:52;99399.56;;;9.25;100.00
30554;BME280;17335;50.720;7.452;2023-04-07T12:56:20;99400.78;;;9.21;100.00
30554;BME280;17335;50.720;7.452;2023-04-07T12:58:49;99399.69;;;9.24;100.00
30554;BME280;17335;50.720;7.452;2023-04-07T13:01:16;99404.59;;;9.18;100.00
30554;BME280;17335;50.720;7.452;2023-04-07T13:03:42;99400.66;;;9.13;100.00
30554;BME280;17335;50.720;7.452;2023-04-07T13:06:09;99406.84;;;9.23;100.00
30554;BME280;17335;50.720;7.452;2023-04-07T13:08:37;99404.91;;;9.25;100.00
30554;BME280;17335;50.720;7.452;2023-04-07T13:11:04;99402.00;;;9.07;100.00
30554;BME280;17335;50.720;7.452;2023-04-07T13:13:31;99408.50;;;9.05;100.00
30554;BME280;17335;50.720;7.452;2023-04-07T13:15:58;99411.03;;;9.06;100.00
30554;BME280;17335;50.720;7.452;2023-04-07T13:18:24;99419.84;;;9.18;100.00
30554;BME280;17335;50.720;7.452;2023-04-07T13:20:51;99422.06;;;9.13;100.00
30554;BME280;17335;50.720;7.452;2023-04-07T13:23:37;99416.03;;;9.20;100.00
30554;BME280;17335;50.720;7.452;2023-04-07T13:26:19;99412.06;;;9.15;100.00
30554;BME280;17335;50.720;7.452;2023-04-07T13:28:45;99415.34;;;9.28;100.00
30554;BME280;17335;50.720;7.452;2023-04-07T13:31:13;99421.06;;;9.14;100.00
30554;BME280;17335;50.720;7.452;2023-04-07T13:33:41;99415.00;;;9.12;100.00
30554;BME280;17335;50.720;7.452;2023-04-07T13:36:08;99419.78;;;9.08;100.00
30554;BME280;17335;50.720;7.452;2023-04-07T13:38:34;99413.16;;;9.12;100.00
30554;BME280;17335;50.720;7.452;2023-04-07T13:41:02;99415.44;;;9.17;100.00